createdAt,value
2017-05-06T00:00:02.655Z,0
2017-05-06T00:05:03.078Z,0
2017-05-06T00:10:02.849Z,0
2017-05-06T00:15:02.635Z,0
2017-05-06T00:20:03.422Z,0
2017-05-06T00:25:03.071Z,0
2017-05-06T00:30:02.837Z,0
2017-05-06T00:35:02.598Z,0
2017-05-06T00:40:03.413Z,0
2017-05-06T00:45:02.981Z,0
2017-05-06T00:50:02.663Z,0
2017-05-06T00:55:03.301Z,0
2017-05-06T01:00:03.044Z,0
2017-05-06T01:05:02.643Z,0
2017-05-06T01:10:02.513Z,0
2017-05-06T01:15:03.173Z,0
2017-05-06T01:20:02.830Z,0
2017-05-06T01:25:02.523Z,0
2017-05-06T01:30:03.158Z,0
2017-05-06T01:35:02.932Z,0
2017-05-06T01:40:02.727Z,0
2017-05-06T01:45:08.451Z,0
2017-05-06T01:50:03.133Z,0
2017-05-06T01:55:02.905Z,0
2017-05-06T02:00:02.536Z,0
2017-05-06T02:05:03.181Z,0
2017-05-06T02:10:02.956Z,0
2017-05-06T02:15:02.848Z,0
2017-05-06T02:20:03.466Z,0
2017-05-06T02:25:03.125Z,0
2017-05-06T02:30:02.779Z,0
2017-05-06T02:35:02.514Z,0
2017-05-06T02:40:03.142Z,0
2017-05-06T02:45:02.924Z,0
2017-05-06T02:50:02.681Z,0
2017-05-06T02:55:03.419Z,0
2017-05-06T03:00:03.016Z,0
2017-05-06T03:05:02.687Z,0
2017-05-06T03:10:03.370Z,0
2017-05-06T03:15:03.132Z,0
2017-05-06T03:20:02.759Z,2
2017-05-06T03:25:03.415Z,3
2017-05-06T03:30:03.164Z,8
2017-05-06T03:35:02.752Z,16
2017-05-06T03:40:03.442Z,27
2017-05-06T03:45:03.005Z,39
2017-05-06T03:50:02.624Z,54
2017-05-06T03:55:03.400Z,61
2017-05-06T04:01:06.462Z,103
2017-05-06T04:05:10.068Z,270
2017-05-06T04:10:02.750Z,401
2017-05-06T04:15:02.535Z,533
2017-05-06T04:20:03.480Z,664
2017-05-06T04:25:03.487Z,751
2017-05-06T04:30:02.951Z,734
2017-05-06T04:35:02.597Z,662
2017-05-06T04:40:03.311Z,648
2017-05-06T04:45:02.896Z,648
2017-05-06T04:50:02.676Z,677
2017-05-06T04:55:03.423Z,733
2017-05-06T05:00:03.037Z,762
2017-05-06T05:05:02.830Z,838
2017-05-06T05:10:02.539Z,967
2017-05-06T05:15:03.236Z,1000
2017-05-06T05:20:02.800Z,1000
2017-05-06T05:25:02.490Z,1000
2017-05-06T05:30:03.082Z,2000
2017-05-06T05:35:02.724Z,3000
2017-05-06T05:40:03.420Z,3000
2017-05-06T05:45:03.211Z,2000
2017-05-06T05:50:02.806Z,2000
2017-05-06T05:55:02.540Z,3000
2017-05-06T06:00:03.196Z,2000
2017-05-06T06:05:02.828Z,3000
2017-05-06T06:10:02.725Z,3000
2017-05-06T06:15:03.428Z,3000
2017-05-06T06:20:03.035Z,3000
2017-05-06T06:25:02.778Z,3000
2017-05-06T06:30:03.364Z,3000
2017-05-06T06:35:03.094Z,3000
2017-05-06T06:40:02.981Z,3000
2017-05-06T06:45:02.871Z,3000
2017-05-06T06:50:02.627Z,3000
2017-05-06T06:55:03.214Z,3000
2017-05-06T07:00:02.882Z,3000
2017-05-06T07:05:02.541Z,3000
2017-05-06T07:10:03.314Z,3000
2017-05-06T07:15:03.018Z,3000
2017-05-06T07:20:02.831Z,3000
2017-05-06T07:25:02.641Z,4000
2017-05-06T07:30:03.366Z,4000
2017-05-06T07:35:03.015Z,4000
2017-05-06T07:40:02.655Z,4000
2017-05-06T07:45:03.337Z,4000
2017-05-06T07:50:02.932Z,5000
2017-05-06T07:55:02.695Z,33000
2017-05-06T08:00:03.266Z,37000
2017-05-06T08:05:02.986Z,39000
2017-05-06T08:10:02.859Z,38000
2017-05-06T08:15:02.509Z,42000
2017-05-06T08:20:03.202Z,44000
2017-05-06T08:25:02.949Z,46000
2017-05-06T08:30:02.608Z,46000
2017-05-06T08:35:03.397Z,49000
2017-05-06T08:40:03.097Z,48000
2017-05-06T08:45:02.715Z,49000
2017-05-06T08:50:03.378Z,53000
2017-05-06T08:55:02.996Z,53000
2017-05-06T09:00:02.755Z,54000
2017-05-06T09:05:02.535Z,52000
2017-05-06T09:10:03.411Z,50000
2017-05-06T09:15:03.127Z,38000
2017-05-06T09:20:02.702Z,55000
2017-05-06T09:25:02.560Z,53000
2017-05-06T09:30:03.035Z,54000
2017-05-06T09:35:02.733Z,54000
2017-05-06T09:40:02.531Z,55000
2017-05-06T09:45:03.279Z,55000
2017-05-06T09:50:03.006Z,56000
2017-05-06T09:55:02.803Z,52000
2017-05-06T10:00:03.117Z,48000
2017-05-06T10:05:02.925Z,49000
2017-05-06T10:10:03.120Z,54000
2017-05-06T10:15:03.302Z,55000
2017-05-06T10:20:02.545Z,58000
2017-05-06T10:25:02.784Z,57000
2017-05-06T10:30:02.606Z,50000
2017-05-06T10:35:03.335Z,56000
2017-05-06T10:40:03.209Z,53000
2017-05-06T10:45:02.741Z,24000
2017-05-06T10:50:03.199Z,58000
2017-05-06T10:55:02.890Z,28000
2017-05-06T11:00:03.081Z,56000
2017-05-06T11:05:02.610Z,34000
2017-05-06T11:10:03.035Z,56000
2017-05-06T11:15:03.005Z,59000
2017-05-06T11:20:02.821Z,55000
2017-05-06T11:25:03.296Z,35000
2017-05-06T11:30:02.808Z,54000
2017-05-06T11:35:02.947Z,33000
2017-05-06T11:40:02.714Z,59000
2017-05-06T11:45:03.222Z,58000
2017-05-06T11:50:02.852Z,61000
2017-05-06T11:55:03.065Z,59000
2017-05-06T12:00:02.670Z,37000
2017-05-06T12:05:03.126Z,41000
2017-05-06T12:10:02.684Z,20000
2017-05-06T12:15:03.083Z,13000
2017-05-06T12:20:03.422Z,50000
2017-05-06T12:25:02.552Z,50000
2017-05-06T12:30:03.102Z,43000
2017-05-06T12:35:03.302Z,48000
2017-05-06T12:40:03.091Z,21000
2017-05-06T12:45:03.376Z,50000
2017-05-06T12:50:03.403Z,45000
2017-05-06T12:55:03.179Z,44000
2017-05-06T13:00:02.813Z,21000
2017-05-06T13:05:02.852Z,45000
2017-05-06T13:10:03.159Z,44000
2017-05-06T13:15:02.770Z,34000
2017-05-06T13:20:03.041Z,43000
2017-05-06T13:25:03.382Z,43000
2017-05-06T13:30:02.989Z,40000
2017-05-06T13:35:03.270Z,39000
2017-05-06T13:40:02.912Z,41000
2017-05-06T13:45:02.982Z,35000
2017-05-06T13:50:02.493Z,15000
2017-05-06T13:55:02.579Z,34000
2017-05-06T14:00:03.142Z,13000
2017-05-06T14:05:03.423Z,28000
2017-05-06T14:10:03.266Z,33000
2017-05-06T14:15:02.715Z,32000
2017-05-06T14:20:03.582Z,12000
2017-05-06T14:25:03.126Z,32000
2017-05-06T14:30:02.732Z,31000
2017-05-06T14:35:02.937Z,32000
2017-05-06T14:40:02.596Z,27000
2017-05-06T14:45:03.080Z,28000
2017-05-06T14:50:02.536Z,32000
2017-05-06T14:55:02.828Z,10000
2017-05-06T15:00:03.379Z,23000
2017-05-06T15:05:02.723Z,12000
2017-05-06T15:10:03.111Z,12000
2017-05-06T15:15:02.532Z,20000
2017-05-06T15:20:02.970Z,24000
2017-05-06T15:25:03.233Z,22000
2017-05-06T15:30:02.899Z,22000
2017-05-06T15:35:03.224Z,21000
2017-05-06T15:40:02.865Z,20000
2017-05-06T15:45:02.551Z,16000
2017-05-06T15:50:03.004Z,20000
2017-05-06T15:55:03.229Z,19000
2017-05-06T16:00:02.656Z,19000
2017-05-06T16:05:02.890Z,14000
2017-05-06T16:10:03.353Z,11000
2017-05-06T16:15:03.040Z,12000
2017-05-06T16:20:02.789Z,16000
2017-05-06T16:25:02.847Z,15000
2017-05-06T16:30:03.420Z,15000
2017-05-06T16:35:02.942Z,15000
2017-05-06T16:40:02.443Z,13000
2017-05-06T16:45:02.974Z,12000
2017-05-06T16:50:02.718Z,12000
2017-05-06T16:55:03.045Z,12000
2017-05-06T17:00:03.217Z,11000
2017-05-06T17:05:03.328Z,8000
2017-05-06T17:10:02.906Z,9000
2017-05-06T17:15:02.702Z,5000
2017-05-06T17:20:03.144Z,6000
2017-05-06T17:25:02.614Z,6000
2017-05-06T17:30:02.862Z,8000
2017-05-06T17:35:03.408Z,7000
2017-05-06T17:40:02.967Z,6000
2017-05-06T17:45:02.558Z,7000
2017-05-06T17:50:02.579Z,6000
2017-05-06T17:55:03.439Z,6000
2017-05-06T18:00:02.464Z,4000
2017-05-06T18:05:03.264Z,5000
2017-05-06T18:10:03.297Z,4000
2017-05-06T18:15:03.279Z,2000
2017-05-06T18:20:03.294Z,1000
2017-05-06T18:25:02.615Z,1000
2017-05-06T18:30:02.639Z,1000
2017-05-06T18:35:03.299Z,935
2017-05-06T18:40:03.107Z,792
2017-05-06T18:45:02.787Z,665
2017-05-06T18:50:02.658Z,542
2017-05-06T18:55:03.272Z,307
2017-05-06T19:00:02.616Z,176
2017-05-06T19:05:03.388Z,124
2017-05-06T19:10:02.935Z,82
2017-05-06T19:15:03.168Z,97
2017-05-06T19:20:02.479Z,54
2017-05-06T19:25:03.063Z,43
2017-05-06T19:30:03.342Z,24
2017-05-06T19:35:02.932Z,13
2017-05-06T19:40:03.178Z,6
2017-05-06T19:45:02.633Z,2
2017-05-06T19:50:03.180Z,1
2017-05-06T19:55:03.454Z,0
2017-05-06T20:00:03.085Z,0
2017-05-06T20:05:03.372Z,0
2017-05-06T20:10:02.960Z,0
2017-05-06T20:15:02.909Z,0
2017-05-06T20:20:02.721Z,0
2017-05-06T20:25:02.909Z,0
2017-05-06T20:30:02.700Z,0
2017-05-06T20:35:02.819Z,0
2017-05-06T20:40:02.925Z,0
2017-05-06T20:45:02.864Z,0
2017-05-06T20:50:03.059Z,0
2017-05-06T20:55:02.953Z,0
2017-05-06T21:00:03.085Z,0
2017-05-06T21:05:02.917Z,0
2017-05-06T21:10:02.919Z,0
2017-05-06T21:15:02.726Z,0
2017-05-06T21:20:03.430Z,0
2017-05-06T21:25:03.212Z,0
2017-05-06T21:30:02.800Z,0
2017-05-06T21:35:03.403Z,0
2017-05-06T21:40:03.026Z,0
2017-05-06T21:45:02.599Z,0
2017-05-06T21:50:03.241Z,0
2017-05-06T21:55:02.841Z,0
2017-05-06T22:00:02.603Z,0
2017-05-06T22:05:03.261Z,0
2017-05-06T22:10:02.879Z,0
2017-05-06T22:15:02.651Z,0
2017-05-06T22:20:03.343Z,0
2017-05-06T22:25:03.087Z,0
2017-05-06T22:30:02.679Z,0
2017-05-06T22:35:03.420Z,0
2017-05-06T22:40:03.073Z,0
2017-05-06T22:45:02.764Z,0
2017-05-06T22:50:02.538Z,0
2017-05-06T22:55:03.265Z,0
2017-05-06T23:00:02.894Z,0
2017-05-06T23:05:02.903Z,0
2017-05-06T23:10:02.572Z,0
2017-05-06T23:15:03.361Z,0
2017-05-06T23:20:02.978Z,0
2017-05-06T23:25:02.665Z,0
2017-05-06T23:30:03.318Z,0
2017-05-06T23:35:02.919Z,0
2017-05-06T23:40:02.589Z,0
2017-05-06T23:45:03.197Z,0
2017-05-06T23:50:02.784Z,0
2017-05-06T23:55:02.603Z,0
